sensor_id;sensor_type;location;lat;lon;timestamp;pressure;altitude;pressure_sealevel;temperature;humidity
21240;BME280;10778;48.962;9.018;2023-05-01T00:00:59;99072.00;;;7.13;100.00
21240;BME280;10778;48.962;9.018;2023-05-01T00:03:26;99065.69;;;7.04;100.00
21240;BME280;10778;48.962;9.018;2023-05-01T00:05:58;99059.97;;;6.99;100.00
21240;BME280;10778;48.962;9.018;2023-05-01T00:08:24;99064.94;;;6.91;100.00
21240;BME280;10778;48.962;9.018;2023-05-01T00:10:50;99067.78;;;6.88;100.00
21240;BME280;10778;48.962;9.018;2023-05-01T00:13:16;99067.91;;;6.86;100.00
21240;BME280;10778;48.962;9.018;2023-05-01T00:15:46;99065.88;;;6.90;100.00
21240;BME280;10778;48.962;9.018;2023-05-01T00:18:12;99065.06;;;6.89;100.00
21240;BME280;10778;48.962;9.018;2023-05-01T00:20:39;99053.66;;;6.90;100.00
21240;BME280;10778;48.962;9.018;2023-05-01T00:23:05;99047.72;;;7.00;100.00
21240;BME280;10778;48.962;9.018;2023-05-01T00:25:31;99049.03;;;7.05;100.00
21240;BME280;10778;48.962;9.018;2023-05-01T00:27:57;99052.72;;;7.03;100.00
21240;BME280;10778;48.962;9.018;2023-05-01T00:30:24;99043.91;;;6.92;100.00
21240;BME280;10778;48.962;9.018;2023-05-01T00:32:52;99040.34;;;6.93;100.00
21240;BME280;10778;48.962;9.018;2023-05-01T00:35:18;99046.63;;;6.91;100.00
21240;BME280;10778;48.962;9.018;2023-05-01T00:37:44;99040.91;;;6.86;100.00
21240;BME280;10778;48.962;9.018;2023-05-01T00:40:10;99041.50;;;6.78;100.00
21240;BME280;10778;48.962;9.018;2023-05-01T00:42:37;99037.31;;;6.75;100.00
21240;BME280;10778;48.962;9.018;2023-05-01T00:45:05;99039.81;;;6.77;100.00
21240;BME280;10778;48.962;9.018;2023-05-01T00:47:32;99032.34;;;6.83;100.00
21240;BME280;10778;48.962;9.018;2023-05-01T00:50:00;99038.63;;;6.81;100.00
21240;BME280;10778;48.962;9.018;2023-05-01T00:52:26;99038.16;;;6.76;100.00
21240;BME280;10778;48.962;9.018;2023-05-01T00:54:52;99030.66;;;6.71;100.00
21240;BME280;10778;48.962;9.018;2023-05-01T00:57:19;99027.66;;;6.64;100.00
21240;BME280;10778;48.962;9.018;2023-05-01T00:59:47;99023.50;;;6.62;100.00
21240;BME280;10778;48.962;9.018;2023-05-01T01:02:13;99023.28;;;6.65;100.00
21240;BME280;10778;48.962;9.018;2023-05-01T01:04:40;99016.88;;;6.69;100.00
21240;BME280;10778;48.962;9.018;2023-05-01T01:12:33;99013.88;;;6.62;100.00
21240;BME280;10778;48.962;9.018;2023-05-01T01:15:13;99006.03;;;6.62;100.00
21240;BME280;10778;48.962;9.018;2023-05-01T01:17:52;99011.50;;;6.59;100.00
21240;BME280;10778;48.962;9.018;2023-05-01T01:29:14;98993.22;;;6.71;100.00
21240;BME280;10778;48.962;9.018;2023-05-01T01:31:51;98993.56;;;6.66;100.00
21240;BME280;10778;48.962;9.018;2023-05-01T01:34:32;98995.47;;;6.64;100.00
21240;BME280;10778;48.962;9.018;2023-05-01T01:37:13;98994.53;;;6.65;100.00
21240;BME280;10778;48.962;9.018;2023-05-01T01:39:59;98990.72;;;6.69;100.00
21240;BME280;10778;48.962;9.018;2023-05-01T01:42:34;98992.53;;;6.68;100.00
21240;BME280;10778;48.962;9.018;2023-05-01T01:45:04;98997.13;;;6.65;100.00
21240;BME280;10778;48.962;9.018;2023-05-01T01:47:35;98988.22;;;6.56;100.00
21240;BME280;10778;48.962;9.018;2023-05-01T01:50:05;98988.91;;;6.58;100.00
21240;BME280;10778;48.962;9.018;2023-05-01T01:52:34;98985.97;;;6.63;100.00
21240;BME280;10778;48.962;9.018;2023-05-01T01:55:08;98980.97;;;6.60;100.00
21240;BME280;10778;48.962;9.018;2023-05-01T01:57:37;98989.59;;;6.49;100.00
21240;BME280;10778;48.962;9.018;2023-05-01T02:00:06;98983.16;;;6.42;100.00
21240;BME280;10778;48.962;9.018;2023-05-01T02:02:39;98978.56;;;6.45;100.00
21240;BME280;10778;48.962;9.018;2023-05-01T02:05:06;98978.00;;;6.53;100.00
21240;BME280;10778;48.962;9.018;2023-05-01T02:07:36;98975.47;;;6.51;100.00
21240;BME280;10778;48.962;9.018;2023-05-01T02:10:05;98969.06;;;6.44;100.00
21240;BME280;10778;48.962;9.018;2023-05-01T02:12:34;98969.16;;;6.43;100.00
21240;BME280;10778;48.962;9.018;2023-05-01T02:15:01;98968.09;;;6.45;100.00
21240;BME280;10778;48.962;9.018;2023-05-01T02:17:28;98961.22;;;6.44;100.00
21240;BME280;10778;48.962;9.018;2023-05-01T02:19:56;98976.06;;;6.44;100.00
21240;BME280;10778;48.962;9.018;2023-05-01T02:22:23;98961.41;;;6.41;100.00
21240;BME280;10778;48.962;9.018;2023-05-01T02:24:52;98959.88;;;6.38;100.00
21240;BME280;10778;48.962;9.018;2023-05-01T02:27:22;98969.81;;;6.33;100.00
21240;BME280;10778;48.962;9.018;2023-05-01T02:29:50;98961.66;;;6.26;100.00
21240;BME280;10778;48.962;9.018;2023-05-01T02:32:16;98968.41;;;6.29;100.00
21240;BME280;10778;48.962;9.018;2023-05-01T02:34:43;98961.66;;;6.26;100.00
21240;BME280;10778;48.962;9.018;2023-05-01T02:37:10;98957.50;;;6.35;100.00
21240;BME280;10778;48.962;9.018;2023-05-01T02:39:38;98962.75;;;6.35;100.00
21240;BME280;10778;48.962;9.018;2023-05-01T02:42:07;98954.31;;;6.43;100.00
21240;BME280;10778;48.962;9.018;2023-05-01T02:44:52;98952.19;;;6.48;100.00
21240;BME280;10778;48.962;9.018;2023-05-01T02:47:21;98942.44;;;6.50;100.00
21240;BME280;10778;48.962;9.018;2023-05-01T02:49:48;98943.28;;;6.51;100.00
21240;BME280;10778;48.962;9.018;2023-05-01T02:52:16;98946.38;;;6.56;100.00
21240;BME280;10778;48.962;9.018;2023-05-01T02:54:44;98946.38;;;6.56;100.00
21240;BME280;10778;48.962;9.018;2023-05-01T02:57:11;98933.19;;;6.58;100.00
21240;BME280;10778;48.962;9.018;2023-05-01T02:59:37;98941.53;;;6.63;100.00
21240;BME280;10778;48.962;9.018;2023-05-01T03:02:05;98933.91;;;6.71;100.00
21240;BME280;10778;48.962;9.018;2023-05-01T03:04:31;98934.75;;;6.72;100.00
21240;BME280;10778;48.962;9.018;2023-05-01T03:06:57;98932.00;;;6.73;100.00
21240;BME280;10778;48.962;9.018;2023-05-01T03:09:23;98932.72;;;6.75;100.00
21240;BME280;10778;48.962;9.018;2023-05-01T03:11:49;98921.22;;;6.78;100.00
21240;BME280;10778;48.962;9.018;2023-05-01T03:14:15;98931.44;;;6.69;100.00
21240;BME280;10778;48.962;9.018;2023-05-01T03:16:41;98932.59;;;6.65;100.00
21240;BME280;10778;48.962;9.018;2023-05-01T03:19:08;98928.81;;;6.69;100.00
21240;BME280;10778;48.962;9.018;2023-05-01T03:21:34;98927.16;;;6.68;100.00
21240;BME280;10778;48.962;9.018;2023-05-01T03:24:00;98926.31;;;6.68;100.00
21240;BME280;10778;48.962;9.018;2023-05-01T03:26:26;98921.56;;;6.62;100.00
21240;BME280;10778;48.962;9.018;2023-05-01T03:28:52;98920.38;;;6.66;100.00
21240;BME280;10778;48.962;9.018;2023-05-01T03:31:19;98921.19;;;6.66;100.00
21240;BME280;10778;48.962;9.018;2023-05-01T03:33:45;98918.34;;;6.58;100.00
21240;BME280;10778;48.962;9.018;2023-05-01T03:36:12;98918.00;;;6.63;100.00
21240;BME280;10778;48.962;9.018;2023-05-01T03:38:38;98922.84;;;6.67;100.00
21240;BME280;10778;48.962;9.018;2023-05-01T03:41:10;98925.03;;;6.74;100.00
21240;BME280;10778;48.962;9.018;2023-05-01T03:43:36;98910.16;;;6.74;100.00
21240;BME280;10778;48.962;9.018;2023-05-01T03:46:08;98914.66;;;6.72;100.00
21240;BME280;10778;48.962;9.018;2023-05-01T03:48:34;98921.34;;;6.76;100.00
21240;BME280;10778;48.962;9.018;2023-05-01T03:51:02;98919.53;;;6.77;100.00
21240;BME280;10778;48.962;9.018;2023-05-01T03:53:28;98910.75;;;6.78;100.00
21240;BME280;10778;48.962;9.018;2023-05-01T03:55:55;98913.59;;;6.75;100.00
21240;BME280;10778;48.962;9.018;2023-05-01T03:58:22;98915.63;;;6.82;100.00
21240;BME280;10778;48.962;9.018;2023-05-01T04:00:48;98908.13;;;6.78;100.00
21240;BME280;10778;48.962;9.018;2023-05-01T04:03:14;98908.28;;;6.76;100.00
21240;BME280;10778;48.962;9.018;2023-05-01T04:05:41;98910.28;;;6.73;100.00
21240;BME280;10778;48.962;9.018;2023-05-01T04:08:08;98908.00;;;6.68;100.00
21240;BME280;10778;48.962;9.018;2023-05-01T04:10:34;98912.66;;;6.76;100.00
21240;BME280;10778;48.962;9.018;2023-05-01T04:13:03;98912.06;;;6.83;100.00
21240;BME280;10778;48.962;9.018;2023-05-01T04:15:29;98904.59;;;6.90;100.00
21240;BME280;10778;48.962;9.018;2023-05-01T04:17:56;98912.66;;;6.87;100.00
21240;BME280;10778;48.962;9.018;2023-05-01T04:20:22;98910.88;;;6.88;100.00
21240;BME280;10778;48.962;9.018;2023-05-01T04:22:48;98911.72;;;6.88;100.00
21240;BME280;10778;48.962;9.018;2023-05-01T04:25:14;98917.06;;;6.87;100.00
21240;BME280;10778;48.962;9.018;2023-05-01T04:27:41;98915.03;;;6.90;100.00
21240;BME280;10778;48.962;9.018;2023-05-01T04:30:07;98912.28;;;6.92;100.00
21240;BME280;10778;48.962;9.018;2023-05-01T04:32:33;98908.16;;;6.89;100.00
21240;BME280;10778;48.962;9.018;2023-05-01T04:35:00;98902.22;;;6.87;100.00
21240;BME280;10778;48.962;9.018;2023-05-01T04:37:27;98900.53;;;6.97;100.00
21240;BME280;10778;48.962;9.018;2023-05-01T04:39:53;98909.47;;;6.95;100.00
21240;BME280;10778;48.962;9.018;2023-05-01T04:42:21;98900.75;;;6.94;100.00
21240;BME280;10778;48.962;9.018;2023-05-01T04:44:47;98909.47;;;6.95;100.00
21240;BME280;10778;48.962;9.018;2023-05-01T04:47:14;98909.78;;;7.02;100.00
21240;BME280;10778;48.962;9.018;2023-05-01T04:49:40;98909.56;;;7.05;100.00
21240;BME280;10778;48.962;9.018;2023-05-01T04:52:06;98905.66;;;7.10;100.00
21240;BME280;10778;48.962;9.018;2023-05-01T04:54:47;98905.16;;;7.17;100.00
21240;BME280;10778;48.962;9.018;2023-05-01T04:57:14;98910.03;;;7.21;100.00
21240;BME280;10778;48.962;9.018;2023-05-01T04:59:40;98907.88;;;7.26;100.00
21240;BME280;10778;48.962;9.018;2023-05-01T05:02:06;98905.25;;;7.26;100.00
21240;BME280;10778;48.962;9.018;2023-05-01T05:04:33;98904.06;;;7.31;100.00
21240;BME280;10778;48.962;9.018;2023-05-01T05:07:00;98906.19;;;7.37;100.00
21240;BME280;10778;48.962;9.018;2023-05-01T05:09:40;98901.06;;;7.47;100.00
21240;BME280;10778;48.962;9.018;2023-05-01T05:12:06;98899.59;;;7.54;100.00
21240;BME280;10778;48.962;9.018;2023-05-01T05:14:32;98903.88;;;7.55;100.00
21240;BME280;10778;48.962;9.018;2023-05-01T05:16:59;98909.34;;;7.63;100.00
21240;BME280;10778;48.962;9.018;2023-05-01T05:19:26;98897.50;;;7.69;100.00
21240;BME280;10778;48.962;9.018;2023-05-01T05:21:52;98901.31;;;7.76;100.00
21240;BME280;10778;48.962;9.018;2023-05-01T05:24:18;98901.75;;;7.81;100.00
21240;BME280;10778;48.962;9.018;2023-05-01T05:26:44;98901.91;;;7.80;100.00
21240;BME280;10778;48.962;9.018;2023-05-01T05:29:10;98904.53;;;7.80;100.00
21240;BME280;10778;48.962;9.018;2023-05-01T05:31:36;98907.06;;;7.91;100.00
21240;BME280;10778;48.962;9.018;2023-05-01T05:34:02;98907.91;;;7.92;100.00
21240;BME280;10778;48.962;9.018;2023-05-01T05:36:29;98905.63;;;7.99;100.00
21240;BME280;10778;48.962;9.018;2023-05-01T05:38:56;98909.66;;;8.03;100.00
21240;BME280;10778;48.962;9.018;2023-05-01T05:41:23;98902.13;;;8.09;100.00
21240;BME280;10778;48.962;9.018;2023-05-01T05:43:53;98895.41;;;8.17;100.00
21240;BME280;10778;48.962;9.018;2023-05-01T05:46:19;98903.47;;;8.25;100.00
21240;BME280;10778;48.962;9.018;2023-05-01T05:48:45;98906.41;;;8.32;100.00
21240;BME280;10778;48.962;9.018;2023-05-01T05:51:11;98904.34;;;8.35;100.00
21240;BME280;10778;48.962;9.018;2023-05-01T05:53:37;98901.47;;;8.38;100.00
21240;BME280;10778;48.962;9.018;2023-05-01T05:56:03;98901.22;;;8.42;100.00
21240;BME280;10778;48.962;9.018;2023-05-01T05:58:30;98915.03;;;8.44;100.00
21240;BME280;10778;48.962;9.018;2023-05-01T06:00:57;98902.97;;;8.52;100.00
21240;BME280;10778;48.962;9.018;2023-05-01T06:03:23;98911.16;;;8.59;100.00
21240;BME280;10778;48.962;9.018;2023-05-01T06:05:51;98905.50;;;8.64;100.00
21240;BME280;10778;48.962;9.018;2023-05-01T06:08:18;98909.53;;;8.68;100.00
21240;BME280;10778;48.962;9.018;2023-05-01T06:10:44;98913.44;;;8.74;100.00
21240;BME280;10778;48.962;9.018;2023-05-01T06:13:10;98904.34;;;8.78;100.00
21240;BME280;10778;48.962;9.018;2023-05-01T06:15:36;98907.66;;;8.80;100.00
21240;BME280;10778;48.962;9.018;2023-05-01T06:18:03;98903.81;;;8.84;100.00
21240;BME280;10778;48.962;9.018;2023-05-01T06:20:30;98907.50;;;8.81;100.00
21240;BME280;10778;48.962;9.018;2023-05-01T06:22:56;98907.69;;;8.90;100.00
21240;BME280;10778;48.962;9.018;2023-05-01T06:25:30;98914.91;;;8.98;100.00
21240;BME280;10778;48.962;9.018;2023-05-01T06:27:56;98906.19;;;8.97;100.00
21240;BME280;10778;48.962;9.018;2023-05-01T06:30:23;98908.59;;;9.10;98.72
21240;BME280;10778;48.962;9.018;2023-05-01T06:32:49;98910.03;;;9.24;97.32
21240;BME280;10778;48.962;9.018;2023-05-01T06:35:16;98911.25;;;9.20;97.88
21240;BME280;10778;48.962;9.018;2023-05-01T06:37:42;98907.66;;;9.21;98.07
21240;BME280;10778;48.962;9.018;2023-05-01T06:40:10;98914.69;;;9.20;98.74
21240;BME280;10778;48.962;9.018;2023-05-01T06:42:38;98915.41;;;9.22;99.06
21240;BME280;10778;48.962;9.018;2023-05-01T06:45:07;98920.13;;;9.29;97.14
21240;BME280;10778;48.962;9.018;2023-05-01T06:47:34;98917.38;;;9.40;97.57
21240;BME280;10778;48.962;9.018;2023-05-01T06:50:00;98908.44;;;9.62;95.86
21240;BME280;10778;48.962;9.018;2023-05-01T06:52:26;98918.66;;;9.65;96.81
21240;BME280;10778;48.962;9.018;2023-05-01T06:54:52;98924.47;;;9.69;98.74
21240;BME280;10778;48.962;9.018;2023-05-01T06:57:18;98918.25;;;9.80;99.92
21240;BME280;10778;48.962;9.018;2023-05-01T07:00:05;98929.75;;;9.89;98.80
21240;BME280;10778;48.962;9.018;2023-05-01T07:02:31;98927.28;;;9.87;95.62
21240;BME280;10778;48.962;9.018;2023-05-01T07:04:58;98926.13;;;9.80;96.14
21240;BME280;10778;48.962;9.018;2023-05-01T07:07:24;98933.34;;;9.88;97.04
21240;BME280;10778;48.962;9.018;2023-05-01T07:09:50;98932.38;;;9.99;96.30
21240;BME280;10778;48.962;9.018;2023-05-01T07:12:16;98930.72;;;9.98;95.71
21240;BME280;10778;48.962;9.018;2023-05-01T07:14:42;98932.25;;;9.90;99.19
21240;BME280;10778;48.962;9.018;2023-05-01T07:17:08;98933.34;;;9.88;98.72
21240;BME280;10778;48.962;9.018;2023-05-01T07:19:34;98921.31;;;9.95;96.95
21240;BME280;10778;48.962;9.018;2023-05-01T07:22:00;98932.13;;;10.02;97.12
21240;BME280;10778;48.962;9.018;2023-05-01T07:24:27;98927.09;;;10.08;96.74
21240;BME280;10778;48.962;9.018;2023-05-01T07:26:53;98930.19;;;10.04;95.80
21240;BME280;10778;48.962;9.018;2023-05-01T07:29:21;98926.00;;;10.21;95.91
21240;BME280;10778;48.962;9.018;2023-05-01T07:31:47;98925.97;;;10.31;95.09
21240;BME280;10778;48.962;9.018;2023-05-01T07:34:13;98921.00;;;10.37;96.08
21240;BME280;10778;48.962;9.018;2023-05-01T07:36:39;98926.47;;;11.12;100.00
21240;BME280;10778;48.962;9.018;2023-05-01T07:39:06;98913.06;;;11.05;94.64
21240;BME280;10778;48.962;9.018;2023-05-01T07:41:32;98917.75;;;11.11;90.44
21240;BME280;10778;48.962;9.018;2023-05-01T07:43:58;98911.53;;;11.02;90.84
21240;BME280;10778;48.962;9.018;2023-05-01T07:46:25;98910.13;;;11.36;91.46
21240;BME280;10778;48.962;9.018;2023-05-01T07:48:51;98913.31;;;11.94;88.54
21240;BME280;10778;48.962;9.018;2023-05-01T07:51:17;98905.19;;;11.87;86.17
21240;BME280;10778;48.962;9.018;2023-05-01T07:53:43;98906.75;;;12.08;84.50
21240;BME280;10778;48.962;9.018;2023-05-01T07:56:11;98907.78;;;12.15;85.46
21240;BME280;10778;48.962;9.018;2023-05-01T07:58:37;98894.19;;;12.28;83.83
21240;BME280;10778;48.962;9.018;2023-05-01T08:01:04;98891.41;;;12.30;84.60
21240;BME280;10778;48.962;9.018;2023-05-01T08:03:30;98889.91;;;11.91;84.02
21240;BME280;10778;48.962;9.018;2023-05-01T08:05:57;98894.81;;;12.22;82.93
21240;BME280;10778;48.962;9.018;2023-05-01T08:08:23;98887.13;;;12.11;82.75
21240;BME280;10778;48.962;9.018;2023-05-01T08:10:50;98900.53;;;12.17;82.45
21240;BME280;10778;48.962;9.018;2023-05-01T08:13:16;98896.63;;;12.03;82.25
21240;BME280;10778;48.962;9.018;2023-05-01T08:15:45;98898.84;;;12.34;82.85
21240;BME280;10778;48.962;9.018;2023-05-01T08:18:11;98895.44;;;12.42;80.65
21240;BME280;10778;48.962;9.018;2023-05-01T08:20:38;98898.78;;;12.52;79.10
21240;BME280;10778;48.962;9.018;2023-05-01T08:23:04;98894.59;;;12.68;78.10
21240;BME280;10778;48.962;9.018;2023-05-01T08:25:30;98903.38;;;12.77;78.14
21240;BME280;10778;48.962;9.018;2023-05-01T08:27:56;98898.84;;;12.95;76.94
21240;BME280;10778;48.962;9.018;2023-05-01T08:30:22;98898.63;;;12.80;75.01
21240;BME280;10778;48.962;9.018;2023-05-01T08:32:48;98903.50;;;13.02;77.44
21240;BME280;10778;48.962;9.018;2023-05-01T08:35:15;98904.00;;;13.05;77.27
21240;BME280;10778;48.962;9.018;2023-05-01T08:37:41;98899.59;;;12.79;75.99
21240;BME280;10778;48.962;9.018;2023-05-01T08:40:07;98898.72;;;13.05;75.16
21240;BME280;10778;48.962;9.018;2023-05-01T08:42:34;98897.84;;;12.97;76.12
21240;BME280;10778;48.962;9.018;2023-05-01T08:45:02;98896.75;;;13.07;75.54
21240;BME280;10778;48.962;9.018;2023-05-01T08:47:29;98895.88;;;12.99;75.75
21240;BME280;10778;48.962;9.018;2023-05-01T08:49:56;98897.72;;;12.98;74.84
21240;BME280;10778;48.962;9.018;2023-05-01T08:52:25;98895.81;;;13.25;74.73
21240;BME280;10778;48.962;9.018;2023-05-01T08:54:53;98888.81;;;13.07;74.79
21240;BME280;10778;48.962;9.018;2023-05-01T08:57:21;98892.50;;;13.23;73.37
21240;BME280;10778;48.962;9.018;2023-05-01T08:59:49;98892.28;;;13.51;73.12
21240;BME280;10778;48.962;9.018;2023-05-01T09:02:16;98885.09;;;13.18;75.25
21240;BME280;10778;48.962;9.018;2023-05-01T09:04:42;98890.69;;;14.08;72.07
21240;BME280;10778;48.962;9.018;2023-05-01T09:07:09;98878.22;;;14.50;69.45
21240;BME280;10778;48.962;9.018;2023-05-01T09:09:35;98880.34;;;14.63;70.74
21240;BME280;10778;48.962;9.018;2023-05-01T09:14:36;98878.94;;;15.00;67.30
21240;BME280;10778;48.962;9.018;2023-05-01T09:17:02;98879.09;;;14.99;66.13
21240;BME280;10778;48.962;9.018;2023-05-01T09:19:28;98887.75;;;14.92;66.70
21240;BME280;10778;48.962;9.018;2023-05-01T09:21:54;98886.66;;;14.54;68.78
21240;BME280;10778;48.962;9.018;2023-05-01T09:24:23;98882.66;;;14.83;68.22
21240;BME280;10778;48.962;9.018;2023-05-01T09:26:52;98883.22;;;15.01;68.81
21240;BME280;10778;48.962;9.018;2023-05-01T09:29:38;98875.34;;;15.25;67.12
21240;BME280;10778;48.962;9.018;2023-05-01T09:34:46;98869.66;;;15.59;66.25
21240;BME280;10778;48.962;9.018;2023-05-01T09:40:11;98879.22;;;15.37;67.12
21240;BME280;10778;48.962;9.018;2023-05-01T09:42:49;98874.47;;;15.32;67.30
21240;BME280;10778;48.962;9.018;2023-05-01T09:45:16;98875.69;;;15.45;67.56
21240;BME280;10778;48.962;9.018;2023-05-01T09:47:43;98874.25;;;15.89;64.12
21240;BME280;10778;48.962;9.018;2023-05-01T09:50:11;98869.28;;;15.94;64.43
21240;BME280;10778;48.962;9.018;2023-05-01T09:52:38;98874.19;;;15.50;64.87
21240;BME280;10778;48.962;9.018;2023-05-01T09:55:14;98871.94;;;15.94;65.03
21240;BME280;10778;48.962;9.018;2023-05-01T09:57:41;98873.75;;;15.93;62.57
21240;BME280;10778;48.962;9.018;2023-05-01T10:00:09;98876.47;;;15.77;65.38
21240;BME280;10778;48.962;9.018;2023-05-01T10:02:35;98873.56;;;15.72;65.71
21240;BME280;10778;48.962;9.018;2023-05-01T10:05:01;98875.34;;;15.48;66.72
21240;BME280;10778;48.962;9.018;2023-05-01T10:07:28;98880.66;;;15.16;67.57
21240;BME280;10778;48.962;9.018;2023-05-01T10:09:54;98878.81;;;15.25;67.38
21240;BME280;10778;48.962;9.018;2023-05-01T10:12:25;98876.72;;;15.12;66.70
21240;BME280;10778;48.962;9.018;2023-05-01T10:14:52;98882.28;;;15.26;65.90
21240;BME280;10778;48.962;9.018;2023-05-01T10:17:19;98884.31;;;14.75;67.68
21240;BME280;10778;48.962;9.018;2023-05-01T10:19:48;98870.69;;;14.87;69.07
21240;BME280;10778;48.962;9.018;2023-05-01T10:22:15;98881.72;;;15.07;68.98
21240;BME280;10778;48.962;9.018;2023-05-01T10:24:42;98874.47;;;15.56;68.01
21240;BME280;10778;48.962;9.018;2023-05-01T10:27:11;98870.53;;;16.21;65.15
21240;BME280;10778;48.962;9.018;2023-05-01T10:29:39;98882.16;;;16.35;67.86
21240;BME280;10778;48.962;9.018;2023-05-01T10:32:07;98865.97;;;16.45;61.52
21240;BME280;10778;48.962;9.018;2023-05-01T10:34:40;98868.25;;;16.33;65.35
21240;BME280;10778;48.962;9.018;2023-05-01T10:37:13;98871.44;;;16.29;64.38
21240;BME280;10778;48.962;9.018;2023-05-01T10:39:43;98866.44;;;16.64;63.30
21240;BME280;10778;48.962;9.018;2023-05-01T10:42:09;98863.41;;;16.82;63.64
21240;BME280;10778;48.962;9.018;2023-05-01T10:44:40;98860.22;;;16.87;61.15
21240;BME280;10778;48.962;9.018;2023-05-01T10:50:04;98864.69;;;16.56;62.13
21240;BME280;10778;48.962;9.018;2023-05-01T10:55:40;98855.34;;;16.45;64.36
21240;BME280;10778;48.962;9.018;2023-05-01T11:01:29;98849.66;;;16.78;64.43
21240;BME280;10778;48.962;9.018;2023-05-01T11:04:04;98845.78;;;17.11;62.82
21240;BME280;10778;48.962;9.018;2023-05-01T11:06:33;98848.66;;;16.80;62.11
21240;BME280;10778;48.962;9.018;2023-05-01T11:09:00;98845.44;;;16.99;61.92
21240;BME280;10778;48.962;9.018;2023-05-01T11:14:06;98845.78;;;16.96;62.31
21240;BME280;10778;48.962;9.018;2023-05-01T11:19:08;98850.84;;;16.76;62.37
21240;BME280;10778;48.962;9.018;2023-05-01T11:21:36;98842.41;;;17.17;62.14
21240;BME280;10778;48.962;9.018;2023-05-01T11:24:04;98845.50;;;17.21;63.88
21240;BME280;10778;48.962;9.018;2023-05-01T11:26:31;98845.28;;;17.01;65.29
21240;BME280;10778;48.962;9.018;2023-05-01T11:28:59;98837.03;;;17.32;63.00
21240;BME280;10778;48.962;9.018;2023-05-01T11:31:26;98832.38;;;17.56;62.73
21240;BME280;10778;48.962;9.018;2023-05-01T11:33:58;98826.59;;;17.31;63.10
21240;BME280;10778;48.962;9.018;2023-05-01T11:36:25;98828.75;;;16.90;64.52
21240;BME280;10778;48.962;9.018;2023-05-01T11:38:56;98829.59;;;16.91;64.37
21240;BME280;10778;48.962;9.018;2023-05-01T11:41:25;98831.34;;;16.99;64.25
21240;BME280;10778;48.962;9.018;2023-05-01T11:43:53;98827.69;;;16.55;64.82
21240;BME280;10778;48.962;9.018;2023-05-01T11:46:27;98828.94;;;16.74;65.09
21240;BME280;10778;48.962;9.018;2023-05-01T11:48:57;98834.81;;;16.84;64.25
21240;BME280;10778;48.962;9.018;2023-05-01T11:51:24;98829.44;;;16.62;65.49
21240;BME280;10778;48.962;9.018;2023-05-01T11:54:03;98840.63;;;16.04;66.44
21240;BME280;10778;48.962;9.018;2023-05-01T11:56:30;98827.50;;;16.41;67.52
21240;BME280;10778;48.962;9.018;2023-05-01T11:58:58;98831.25;;;16.62;67.65
21240;BME280;10778;48.962;9.018;2023-05-01T12:01:38;98827.38;;;17.10;62.09
21240;BME280;10778;48.962;9.018;2023-05-01T12:04:06;98834.81;;;16.99;65.98
21240;BME280;10778;48.962;9.018;2023-05-01T12:06:40;98830.91;;;17.32;65.42
21240;BME280;10778;48.962;9.018;2023-05-01T12:09:19;98819.72;;;17.87;63.89
21240;BME280;10778;48.962;9.018;2023-05-01T12:11:47;98814.34;;;17.80;65.22
21240;BME280;10778;48.962;9.018;2023-05-01T12:14:14;98828.16;;;17.25;66.35
21240;BME280;10778;48.962;9.018;2023-05-01T12:16:41;98828.56;;;16.92;68.38
21240;BME280;10778;48.962;9.018;2023-05-01T12:19:08;98822.09;;;16.80;67.44
21240;BME280;10778;48.962;9.018;2023-05-01T12:21:35;98820.50;;;17.00;65.39
21240;BME280;10778;48.962;9.018;2023-05-01T12:24:08;98815.59;;;16.82;63.99
21240;BME280;10778;48.962;9.018;2023-05-01T12:26:35;98813.25;;;16.94;65.82
21240;BME280;10778;48.962;9.018;2023-05-01T12:29:04;98815.47;;;17.64;65.07
21240;BME280;10778;48.962;9.018;2023-05-01T12:31:30;98811.88;;;17.57;64.15
21240;BME280;10778;48.962;9.018;2023-05-01T12:34:02;98828.41;;;17.52;63.87
21240;BME280;10778;48.962;9.018;2023-05-01T12:36:30;98824.75;;;17.31;65.03
21240;BME280;10778;48.962;9.018;2023-05-01T12:39:05;98825.50;;;17.25;63.29
21240;BME280;10778;48.962;9.018;2023-05-01T12:41:41;98821.69;;;16.98;64.13
21240;BME280;10778;48.962;9.018;2023-05-01T12:44:24;98816.38;;;16.83;63.38
21240;BME280;10778;48.962;9.018;2023-05-01T12:47:12;98827.09;;;16.89;66.07
21240;BME280;10778;48.962;9.018;2023-05-01T12:49:38;98825.03;;;17.00;66.82
21240;BME280;10778;48.962;9.018;2023-05-01T12:52:06;98825.91;;;16.92;64.27
21240;BME280;10778;48.962;9.018;2023-05-01T12:54:38;98823.91;;;16.94;64.48
21240;BME280;10778;48.962;9.018;2023-05-01T12:57:10;98829.88;;;16.81;65.06
21240;BME280;10778;48.962;9.018;2023-05-01T12:59:38;98817.88;;;16.85;66.00
21240;BME280;10778;48.962;9.018;2023-05-01T13:02:06;98816.19;;;17.14;64.41
21240;BME280;10778;48.962;9.018;2023-05-01T13:04:33;98815.50;;;17.27;63.20
21240;BME280;10778;48.962;9.018;2023-05-01T13:06:59;98816.75;;;17.10;62.85
21240;BME280;10778;48.962;9.018;2023-05-01T13:09:27;98815.84;;;17.02;62.47
21240;BME280;10778;48.962;9.018;2023-05-01T13:12:04;98810.72;;;16.71;62.82
21240;BME280;10778;48.962;9.018;2023-05-01T13:14:37;98817.03;;;16.85;64.12
21240;BME280;10778;48.962;9.018;2023-05-01T13:17:06;98803.69;;;16.63;64.16
21240;BME280;10778;48.962;9.018;2023-05-01T13:19:32;98806.22;;;17.01;64.45
21240;BME280;10778;48.962;9.018;2023-05-01T13:21:58;98801.06;;;17.15;65.29
21240;BME280;10778;48.962;9.018;2023-05-01T13:24:38;98803.22;;;17.26;64.29
21240;BME280;10778;48.962;9.018;2023-05-01T13:27:07;98799.16;;;17.52;63.44
21240;BME280;10778;48.962;9.018;2023-05-01T13:29:34;98794.09;;;17.57;61.09
21240;BME280;10778;48.962;9.018;2023-05-01T13:32:03;98794.72;;;18.10;62.01
21240;BME280;10778;48.962;9.018;2023-05-01T13:34:30;98792.34;;;19.05;58.06
21240;BME280;10778;48.962;9.018;2023-05-01T13:36:58;98786.47;;;18.75;60.30
21240;BME280;10778;48.962;9.018;2023-05-01T13:39:25;98776.84;;;18.74;60.43
21240;BME280;10778;48.962;9.018;2023-05-01T13:41:52;98783.38;;;19.67;59.06